Time;durP1;ratioP1;P1;durP2;ratioP2;P2;SDS_P1;SDS_P2;PMS_P1;PMS_P2;Temp;Humidity;BMP_temperature;BMP_pressure;BME280_temperature;BME280_humidity;BME280_pressure;Samples;Min_cycle;Max_cycle;Signal;HPM_P1;HPM_P2
2024/02/09 00:00:18;;;;;;;0.90;0.90;;;2.00;99.90;;;;;;6171590;23;20017;-78
2024/02/09 00:02:45;;;;;;;0.80;0.80;;;1.30;99.90;;;;;;6146482;23;20021;-78
2024/02/09 00:05:11;;;;;;;0.70;0.70;;;1.70;99.90;;;;;;6145654;23;20021;-77
2024/02/09 00:07:37;;;;;;;0.70;0.70;;;1.30;99.90;;;;;;6146820;23;20337;-78
2024/02/09 00:10:07;;;;;;;0.75;0.75;;;1.30;99.90;;;;;;6148256;23;20025;-78
2024/02/09 00:12:34;;;;;;;0.70;0.70;;;1.30;99.90;;;;;;6121726;23;20013;-77
2024/02/09 00:15:06;;;;;;;0.75;0.75;;;0.90;99.90;;;;;;6121386;23;20147;-77
2024/02/09 00:17:37;;;;;;;0.70;0.70;;;1.30;99.90;;;;;;6122929;23;20476;-78
2024/02/09 00:20:10;;;;;;;0.80;0.80;;;1.20;99.90;;;;;;6170310;23;20013;-78
2024/02/09 00:22:38;;;;;;;0.70;0.70;;;1.30;99.90;;;;;;6173057;23;20092;-78
2024/02/09 00:25:10;;;;;;;0.80;0.80;;;1.80;99.90;;;;;;6149098;23;20070;-78
2024/02/09 00:27:39;;;;;;;0.63;0.63;;;1.20;99.90;;;;;;6147908;23;20025;-76
2024/02/09 00:30:06;;;;;;;0.80;0.80;;;1.30;99.90;;;;;;6148917;23;20108;-78
2024/02/09 00:32:35;;;;;;;0.77;0.77;;;1.30;99.90;;;;;;6124247;23;20021;-79
2024/02/09 00:35:02;;;;;;;0.70;0.70;;;1.20;99.90;;;;;;6123896;23;20437;-79
2024/02/09 00:37:27;;;;;;;0.80;0.80;;;1.20;99.90;;;;;;6173160;23;20579;-79
2024/02/09 00:39:54;;;;;;;0.70;0.70;;;1.20;99.90;;;;;;6173132;23;20017;-79
2024/02/09 00:42:20;;;;;;;;;;;1.10;99.90;;;;;;6125197;23;20021;-79
2024/02/09 00:44:48;;;;;;;0.70;0.70;;;1.30;99.90;;;;;;6152970;23;20396;-79
2024/02/09 00:47:14;;;;;;;1.25;1.25;;;1.30;99.90;;;;;;6154010;23;20444;-79
2024/02/09 00:49:43;;;;;;;0.70;0.70;;;1.40;99.90;;;;;;6179620;23;20108;-79
2024/02/09 00:52:11;;;;;;;0.70;0.70;;;1.30;99.90;;;;;;6106362;23;20024;-79
2024/02/09 00:54:46;;;;;;;0.77;0.77;;;1.30;99.90;;;;;;6155565;23;20021;-79
2024/02/09 00:57:14;;;;;;;0.70;0.70;;;2.40;99.90;;;;;;6155421;23;20052;-79
2024/02/09 00:59:42;;;;;;;0.77;0.77;;;1.50;99.90;;;;;;6106605;23;20087;-79
2024/02/09 01:02:08;;;;;;;0.68;0.68;;;2.10;99.90;;;;;;6181838;23;20444;-79
2024/02/09 01:04:38;;;;;;;0.70;0.70;;;1.30;99.90;;;;;;6154673;23;20357;-80
2024/02/09 01:07:05;;;;;;;0.70;0.70;;;2.10;99.90;;;;;;6174776;23;20024;-79
2024/02/09 01:09:32;;;;;;;0.70;0.70;;;1.20;99.90;;;;;;6181182;23;20107;-79
2024/02/09 01:11:59;;;;;;;0.77;0.77;;;1.30;99.90;;;;;;6154949;23;20071;-78
2024/02/09 02:44:57;;;;;;;0.70;0.70;;;1.50;99.90;;;;;;6132028;23;20096;-79
2024/02/09 02:47:23;;;;;;;0.70;0.70;;;1.70;99.90;;;;;;6156705;23;20013;-79
2024/02/09 03:06:37;;;;;;;;;;;1.80;99.90;;;;;;6156769;23;20049;-80
2024/02/09 03:09:04;;;;;;;0.63;0.63;;;1.60;99.90;;;;;;6156257;23;20000;-80
2024/02/09 03:11:29;;;;;;;0.60;0.60;;;2.40;99.90;;;;;;6182845;23;20074;-80
2024/02/09 03:13:55;;;;;;;0.70;0.70;;;2.90;99.90;;;;;;6180256;23;20023;-80
2024/02/09 03:16:21;;;;;;;0.80;0.80;;;2.90;99.90;;;;;;6156282;23;20017;-80
2024/02/09 03:18:46;;;;;;;0.60;0.60;;;1.80;99.90;;;;;;6106874;23;20024;-80
2024/02/09 03:21:25;;;;;;;0.70;0.70;;;2.50;99.90;;;;;;6131640;23;20020;-80
2024/02/09 03:23:53;;;;;;;0.80;0.80;;;2.60;99.90;;;;;;6156123;23;20417;-79
2024/02/09 03:26:23;;;;;;;0.80;0.80;;;2.10;99.90;;;;;;6182430;23;20088;-79
2024/02/09 03:28:55;;;;;;;0.63;0.63;;;2.20;99.90;;;;;;6180441;23;20028;-79
2024/02/09 03:31:22;;;;;;;0.80;0.80;;;3.50;99.90;;;;;;6182468;23;20620;-79
2024/02/09 03:33:49;;;;;;;0.80;0.80;;;2.10;99.90;;;;;;6181634;23;20017;-80
2024/02/09 03:36:20;;;;;;;0.70;0.70;;;2.80;99.90;;;;;;6130983;23;20009;-79
2024/02/09 03:38:47;;;;;;;0.70;0.70;;;2.40;99.90;;;;;;6155606;23;20017;-80
2024/02/09 03:41:13;;;;;;;0.70;0.70;;;1.60;99.90;;;;;;6106727;23;20013;-79
2024/02/09 03:43:42;;;;;;;0.70;0.70;;;1.90;99.90;;;;;;6157216;23;20055;-79
2024/02/09 03:46:08;;;;;;;0.70;0.70;;;2.80;99.90;;;;;;6155630;23;20012;-80
2024/02/09 03:48:35;;;;;;;0.98;0.98;;;2.20;99.90;;;;;;6155813;23;20143;-79
2024/02/09 03:51:02;;;;;;;0.60;0.60;;;1.70;99.90;;;;;;6154630;23;20027;-80
2024/02/09 03:53:31;;;;;;;0.60;0.60;;;1.90;99.90;;;;;;6155977;23;20044;-80
2024/02/09 03:55:56;;;;;;;0.80;0.80;;;1.90;99.90;;;;;;6155244;23;20205;-80
2024/02/09 03:58:22;;;;;;;;;;;1.20;99.90;;;;;;6156665;23;20013;-80
2024/02/09 04:00:49;;;;;;;0.70;0.70;;;2.50;99.90;;;;;;6155394;23;19916;-80
2024/02/09 04:03:15;;;;;;;0.68;0.68;;;2.10;99.90;;;;;;6105897;23;20013;-80
2024/02/09 04:05:41;;;;;;;1.10;1.10;;;2.80;99.90;;;;;;6155545;23;20508;-81
2024/02/09 04:08:07;;;;;;;0.70;0.70;;;1.70;99.90;;;;;;6130714;23;20072;-80
2024/02/09 04:10:37;;;;;;;0.93;0.93;;;2.40;99.90;;;;;;6155410;23;20021;-81
2024/02/09 04:13:05;;;;;;;0.77;0.77;;;2.40;99.90;;;;;;6154780;23;20461;-80
2024/02/09 04:15:31;;;;;;;0.60;0.60;;;3.20;99.90;;;;;;6155619;23;20021;-79
2024/02/09 04:18:01;;;;;;;0.70;0.70;;;2.40;99.90;;;;;;6181317;23;20025;-80
2024/02/09 04:20:27;;;;;;;0.75;0.75;;;3.00;99.90;;;;;;6182424;23;20017;-80
2024/02/09 04:22:53;;;;;;;1.35;1.25;;;1.90;99.90;;;;;;6156041;23;20136;-79
2024/02/09 04:25:19;;;;;;;0.80;0.80;;;2.00;99.90;;;;;;6181319;23;20079;-79
2024/02/09 04:27:45;;;;;;;0.77;0.77;;;;;;;;;;6178846;23;20019;-79
2024/02/09 04:30:15;;;;;;;0.68;0.68;;;;;;;;;;6180241;23;20019;-78
2024/02/09 04:32:42;;;;;;;0.70;0.70;;;;;;;;;;6179645;23;20518;-79
2024/02/09 04:35:08;;;;;;;0.60;0.60;;;;;;;;;;6179454;23;20487;-79
2024/02/09 04:37:34;;;;;;;;;;;1.80;99.90;;;;;;6180166;23;20017;-80
2024/02/09 04:39:59;;;;;;;0.60;0.60;;;1.80;99.90;;;;;;6179686;23;20390;-80
2024/02/09 04:42:25;;;;;;;0.77;0.77;;;2.20;99.90;;;;;;6179588;23;20015;-80
2024/02/09 04:44:51;;;;;;;0.70;0.70;;;1.70;99.90;;;;;;6180026;23;20064;-81
2024/02/09 04:47:19;;;;;;;0.60;0.60;;;1.70;99.90;;;;;;6155489;23;20031;-80
2024/02/09 04:49:44;;;;;;;0.80;0.80;;;1.80;99.90;;;;;;6156016;23;20028;-80
2024/02/09 04:52:13;;;;;;;2.33;2.13;;;1.40;99.90;;;;;;6180067;23;20357;-80
2024/02/09 04:54:39;;;;;;;0.70;0.70;;;1.90;99.90;;;;;;6154904;23;20024;-81
2024/02/09 04:57:07;;;;;;;0.70;0.70;;;2.80;99.90;;;;;;6105585;23;20021;-80
2024/02/09 04:59:34;;;;;;;0.60;0.60;;;3.30;99.90;;;;;;6157180;23;20067;-80
2024/02/09 05:01:59;;;;;;;0.65;0.65;;;2.60;99.90;;;;;;6182881;23;20340;-80
2024/02/09 05:04:25;;;;;;;0.65;0.65;;;2.10;99.90;;;;;;6157854;23;20057;-80
2024/02/09 05:06:51;;;;;;;0.75;0.75;;;1.90;99.90;;;;;;6182423;23;20052;-80
2024/02/09 05:09:29;;;;;;;0.70;0.70;;;1.80;99.90;;;;;;6156668;23;20023;-80
2024/02/09 05:11:56;;;;;;;0.80;0.80;;;3.00;99.90;;;;;;6159542;23;20446;-80
2024/02/09 05:14:21;;;;;;;0.63;0.63;;;1.90;99.90;;;;;;6157138;23;20016;-81
2024/02/09 05:16:47;;;;;;;0.60;0.60;;;1.90;99.90;;;;;;6181477;23;20021;-80
2024/02/09 05:19:13;;;;;;;0.80;0.80;;;1.90;99.90;;;;;;6181134;23;20023;-80
2024/02/09 05:21:39;;;;;;;0.75;0.75;;;1.90;99.90;;;;;;6132549;23;20013;-80
2024/02/09 05:24:05;;;;;;;0.70;0.70;;;1.90;99.90;;;;;;6132406;23;20050;-81
2024/02/09 05:26:31;;;;;;;0.60;0.60;;;1.90;99.90;;;;;;6156828;23;20396;-80
2024/02/09 05:28:57;;;;;;;0.68;0.68;;;2.00;99.90;;;;;;6157297;23;20016;-80
2024/02/09 05:31:23;;;;;;;0.70;0.70;;;2.00;99.90;;;;;;6157221;23;20024;-80
2024/02/09 05:33:50;;;;;;;0.60;0.60;;;2.00;99.90;;;;;;6107966;23;20017;-80
2024/02/09 05:36:27;;;;;;;0.93;0.93;;;3.10;99.90;;;;;;6181230;23;20025;-80
2024/02/09 05:38:54;;;;;;;0.70;0.70;;;2.00;99.90;;;;;;6156252;23;20094;-80
2024/02/09 05:41:20;;;;;;;0.70;0.70;;;2.00;99.90;;;;;;6156675;23;20021;-81
2024/02/09 05:43:48;;;;;;;0.75;0.75;;;2.00;99.90;;;;;;6156821;23;20377;-80
2024/02/09 05:46:15;;;;;;;0.60;0.60;;;2.00;99.90;;;;;;6157110;23;20428;-80
2024/02/09 05:48:45;;;;;;;0.70;0.70;;;2.00;99.90;;;;;;6157399;23;20024;-81
2024/02/09 05:51:12;;;;;;;0.60;0.60;;;3.00;99.90;;;;;;6182039;23;20084;-81
2024/02/09 05:53:41;;;;;;;0.70;0.70;;;2.00;99.90;;;;;;6157700;23;20023;-81
2024/02/09 05:56:21;;;;;;;0.60;0.60;;;2.10;99.90;;;;;;6133221;23;20519;-80
2024/02/09 05:58:51;;;;;;;0.70;0.70;;;2.10;99.90;;;;;;6157127;23;20068;-81
2024/02/09 06:01:19;;;;;;;0.70;0.70;;;2.60;99.90;;;;;;6156964;23;20017;-81
2024/02/09 06:03:46;;;;;;;0.70;0.70;;;2.10;99.90;;;;;;6133371;23;20024;-81
2024/02/09 06:06:12;;;;;;;;;;;2.40;99.90;;;;;;6157623;23;20041;-81
2024/02/09 06:08:38;;;;;;;0.75;0.75;;;2.10;99.90;;;;;;6156567;23;19991;-82
2024/02/09 06:11:05;;;;;;;0.70;0.70;;;2.10;99.90;;;;;;6155711;23;20323;-82
2024/02/09 06:13:31;;;;;;;0.60;0.60;;;2.10;99.90;;;;;;6182032;23;20015;-81
2024/02/09 06:16:00;;;;;;;0.70;0.70;;;2.90;99.90;;;;;;6132139;23;20041;-82
2024/02/09 06:18:29;;;;;;;0.52;0.52;;;2.20;99.90;;;;;;6155464;23;20017;-81
2024/02/09 06:20:56;;;;;;;0.60;0.60;;;2.70;99.90;;;;;;6131731;23;20055;-82
2024/02/09 06:23:24;;;;;;;0.70;0.70;;;2.20;99.90;;;;;;6156396;23;20009;-81
2024/02/09 06:25:52;;;;;;;2.15;0.93;;;2.20;99.90;;;;;;6131678;23;20024;-82
2024/02/09 06:28:21;;;;;;;0.60;0.60;;;2.20;99.90;;;;;;6156371;23;20048;-82
2024/02/09 06:30:51;;;;;;;0.50;0.50;;;2.20;99.90;;;;;;6183718;23;20110;-82
2024/02/09 06:33:19;;;;;;;0.70;0.70;;;2.20;99.90;;;;;;6107774;23;20021;-82
2024/02/09 06:35:50;;;;;;;0.60;0.60;;;2.20;99.90;;;;;;6182248;23;20017;-81
2024/02/09 06:38:18;;;;;;;0.80;0.80;;;2.20;99.90;;;;;;6155861;23;20017;-81
2024/02/09 06:40:45;;;;;;;0.70;0.70;;;3.00;99.90;;;;;;6131932;23;20013;-82
2024/02/09 06:43:10;;;;;;;0.70;0.70;;;2.30;99.90;;;;;;6156547;23;20048;-81
2024/02/09 06:45:36;;;;;;;0.70;0.70;;;3.00;99.90;;;;;;6156460;23;20024;-82
2024/02/09 06:48:08;;;;;;;0.70;0.70;;;2.30;99.90;;;;;;6180872;23;20013;-82
2024/02/09 06:50:35;;;;;;;0.60;0.60;;;2.30;99.90;;;;;;6131352;23;20071;-82
2024/02/09 06:53:08;;;;;;;0.70;0.70;;;2.30;99.90;;;;;;6182917;23;20503;-83
2024/02/09 06:55:36;;;;;;;0.60;0.60;;;2.30;99.90;;;;;;6156841;23;20013;-83
2024/02/09 06:58:03;;;;;;;0.70;0.70;;;3.00;99.90;;;;;;6182644;23;20013;-82
2024/02/09 07:00:28;;;;;;;0.55;0.55;;;2.40;99.90;;;;;;6181002;23;20017;-82
2024/02/09 07:02:55;;;;;;;0.77;0.77;;;2.40;99.90;;;;;;6131999;23;20075;-81
2024/02/09 07:05:22;;;;;;;0.63;0.63;;;3.10;99.90;;;;;;6125976;23;20064;-82
2024/02/09 07:07:49;;;;;;;0.60;0.60;;;2.70;99.90;;;;;;6128492;23;20024;-82
2024/02/09 07:10:17;;;;;;;0.70;0.70;;;2.50;99.90;;;;;;6130315;23;20358;-83
2024/02/09 07:12:46;;;;;;;0.63;0.63;;;2.50;99.90;;;;;;6181259;23;20092;-81
2024/02/09 07:15:14;;;;;;;2.72;0.85;;;2.50;99.90;;;;;;6156277;23;20017;-81
2024/02/09 07:17:41;;;;;;;0.60;0.60;;;1.30;99.90;;;;;;6156427;23;20096;-81
2024/02/09 07:20:09;;;;;;;0.70;0.70;;;4.10;99.90;;;;;;6154824;23;20106;-82
2024/02/09 07:22:35;;;;;;;0.65;0.65;;;2.60;99.90;;;;;;6132818;23;20017;-81
2024/02/09 07:25:04;;;;;;;1.02;1.02;;;3.80;99.90;;;;;;6183096;23;20068;-81
2024/02/09 07:27:30;;;;;;;0.60;0.60;;;2.60;99.90;;;;;;6131849;23;20488;-82
2024/02/09 07:30:03;;;;;;;0.65;0.65;;;2.60;99.90;;;;;;6156954;23;20104;-83
2024/02/09 07:32:30;;;;;;;0.70;0.70;;;2.70;99.90;;;;;;6134407;23;20013;-82
2024/02/09 07:34:56;;;;;;;0.75;0.75;;;2.70;99.90;;;;;;6155218;23;20021;-82
2024/02/09 07:37:22;;;;;;;0.60;0.60;;;2.70;99.90;;;;;;6156595;23;20032;-82
2024/02/09 07:39:47;;;;;;;0.65;0.65;;;2.70;99.90;;;;;;6107366;23;20017;-82
2024/02/09 07:42:17;;;;;;;0.57;0.57;;;2.80;99.90;;;;;;6156559;23;20017;-80
2024/02/09 07:44:43;;;;;;;1.80;1.17;;;2.80;99.90;;;;;;6131819;23;20016;-81
2024/02/09 07:47:10;;;;;;;0.80;0.80;;;3.20;99.90;;;;;;6155746;23;20039;-81
2024/02/09 07:49:36;;;;;;;0.68;0.68;;;2.80;99.90;;;;;;6155050;23;20195;-79
2024/02/09 07:52:09;;;;;;;0.50;0.50;;;3.60;99.90;;;;;;6181843;23;20450;-79
2024/02/09 07:54:36;;;;;;;0.60;0.60;;;4.60;99.90;;;;;;6155474;23;20016;-79
2024/02/09 07:57:06;;;;;;;0.68;0.68;;;2.90;99.90;;;;;;6182618;23;20020;-78
2024/02/09 07:59:32;;;;;;;0.60;0.60;;;2.90;99.90;;;;;;6108167;23;20123;-79
2024/02/09 08:01:58;;;;;;;0.60;0.60;;;3.10;99.90;;;;;;6155792;23;20040;-77
2024/02/09 08:04:28;;;;;;;0.60;0.60;;;3.00;99.90;;;;;;6179132;23;20016;-78
2024/02/09 08:06:53;;;;;;;0.80;0.80;;;3.00;99.90;;;;;;6108254;23;20013;-78
2024/02/09 08:09:19;;;;;;;0.70;0.70;;;3.10;99.90;;;;;;6158642;23;20056;-80
2024/02/09 08:11:48;;;;;;;0.63;0.63;;;3.10;99.90;;;;;;6184882;23;20035;-79
2024/02/09 08:14:14;;;;;;;0.60;0.60;;;3.10;99.90;;;;;;6157738;23;20020;-79
2024/02/09 08:16:40;;;;;;;;;;;4.10;99.90;;;;;;6155786;23;20529;-79
2024/02/09 08:19:09;;;;;;;0.63;0.63;;;3.80;99.90;;;;;;6154333;23;19920;-78
2024/02/09 08:21:38;;;;;;;0.60;0.60;;;4.60;99.90;;;;;;6105325;23;20092;-78
2024/02/09 08:24:07;;;;;;;0.50;0.50;;;3.20;99.90;;;;;;6130818;23;20055;-79
2024/02/09 08:26:33;;;;;;;0.60;0.60;;;3.20;99.90;;;;;;6129948;23;20020;-78
2024/02/09 08:28:59;;;;;;;0.60;0.60;;;3.30;99.90;;;;;;6155254;23;20346;-77
2024/02/09 08:31:25;;;;;;;;;;;3.30;99.90;;;;;;6106883;23;20013;-79
2024/02/09 08:33:51;;;;;;;0.60;0.60;;;3.30;99.90;;;;;;6154842;23;19912;-79
2024/02/09 08:36:19;;;;;;;1.50;0.98;;;3.40;99.90;;;;;;6178898;23;20028;-78
2024/02/09 08:38:46;;;;;;;0.60;0.60;;;3.40;99.90;;;;;;6155918;23;20013;-78
2024/02/09 08:41:12;;;;;;;0.60;0.60;;;4.00;99.90;;;;;;6154695;23;20013;-78
2024/02/09 08:43:38;;;;;;;0.60;0.60;;;3.50;99.90;;;;;;6154331;23;20067;-78
2024/02/09 08:46:04;;;;;;;;;;;2.70;99.90;;;;;;6179367;23;20013;-78
2024/02/09 08:48:30;;;;;;;0.65;0.65;;;3.60;99.90;;;;;;6177553;23;19943;-78
2024/02/09 08:50:56;;;;;;;0.68;0.68;;;4.10;99.90;;;;;;6153198;23;20025;-78
2024/02/09 08:53:23;;;;;;;0.80;0.80;;;3.70;99.90;;;;;;6154324;23;20409;-77
2024/02/09 08:55:49;;;;;;;0.60;0.60;;;3.70;99.90;;;;;;6106593;23;20116;-77
2024/02/09 08:58:24;;;;;;;0.60;0.60;;;4.70;99.90;;;;;;6156884;23;20020;-78
2024/02/09 09:00:49;;;;;;;0.60;0.60;;;3.80;99.90;;;;;;6154712;23;20025;-79
2024/02/09 09:03:17;;;;;;;0.60;0.60;;;3.80;99.90;;;;;;6181125;23;20020;-78
2024/02/09 09:05:47;;;;;;;0.60;0.60;;;4.20;99.90;;;;;;6178269;23;20068;-77
2024/02/09 09:08:16;;;;;;;0.60;0.60;;;3.80;99.90;;;;;;6131174;23;20119;-78
2024/02/09 09:10:42;;;;;;;;;;;3.90;99.90;;;;;;6155017;23;20357;-78
2024/02/09 09:13:10;;;;;;;1.17;1.17;;;3.90;99.90;;;;;;6179920;23;19912;-78
2024/02/09 09:15:41;;;;;;;0.60;0.60;;;4.50;99.90;;;;;;6130386;23;20053;-78
2024/02/09 09:18:07;;;;;;;0.60;0.60;;;4.10;99.90;;;;;;6130234;23;20037;-78
2024/02/09 09:20:35;;;;;;;0.60;0.60;;;5.60;99.90;;;;;;6177857;23;20040;-78
2024/02/09 09:23:03;;;;;;;0.57;0.57;;;5.30;99.90;;;;;;6155138;23;20123;-79
2024/02/09 09:25:31;;;;;;;0.60;0.60;;;4.20;99.90;;;;;;6129763;23;20465;-77
2024/02/09 09:27:58;;;;;;;0.68;0.68;;;4.30;99.90;;;;;;6130279;23;20017;-79
2024/02/09 09:30:25;;;;;;;0.63;0.63;;;5.50;99.90;;;;;;6154289;23;20012;-79
2024/02/09 09:32:53;;;;;;;0.60;0.60;;;4.30;99.90;;;;;;6179012;23;20017;-78
2024/02/09 09:35:18;;;;;;;0.50;0.50;;;4.30;99.90;;;;;;6152857;23;20028;-78
2024/02/09 09:37:44;;;;;;;1.42;1.42;;;4.40;99.90;;;;;;6129141;23;20017;-78
2024/02/09 09:40:11;;;;;;;;;;;4.40;99.90;;;;;;6106578;23;20496;-79
2024/02/09 09:42:37;;;;;;;0.50;0.50;;;4.40;99.90;;;;;;6179236;23;20345;-79
2024/02/09 09:45:07;;;;;;;0.50;0.50;;;4.50;99.90;;;;;;6155136;23;20009;-79
2024/02/09 09:47:37;;;;;;;0.55;0.55;;;4.60;99.90;;;;;;6155905;23;20330;-78
2024/02/09 09:50:06;;;;;;;0.60;0.60;;;4.80;99.90;;;;;;6153117;23;20021;-79
2024/02/09 09:52:36;;;;;;;0.88;0.88;;;4.90;99.90;;;;;;6131812;23;20393;-79
2024/02/09 09:55:06;;;;;;;0.57;0.57;;;5.00;99.90;;;;;;6154269;23;20418;-79
2024/02/09 09:57:32;;;;;;;0.50;0.50;;;5.00;99.90;;;;;;6156277;23;20024;-78
2024/02/09 10:00:00;;;;;;;0.70;0.70;;;5.10;99.90;;;;;;6106733;23;20024;-80
2024/02/09 10:02:30;;;;;;;0.73;0.73;;;5.10;99.90;;;;;;6178593;23;20358;-79
2024/02/09 10:04:58;;;;;;;0.57;0.57;;;5.10;99.90;;;;;;6130583;23;20453;-79
2024/02/09 10:07:23;;;;;;;0.60;0.60;;;5.20;99.90;;;;;;6132372;23;20013;-79
2024/02/09 10:09:51;;;;;;;0.60;0.60;;;5.40;99.90;;;;;;6156421;23;20104;-79
2024/02/09 10:12:20;;;;;;;0.80;0.80;;;5.50;99.90;;;;;;6157273;23;20017;-79
2024/02/09 10:14:48;;;;;;;3.60;1.02;;;5.70;99.90;;;;;;6131625;23;20270;-79
2024/02/09 10:17:13;;;;;;;0.60;0.60;;;5.70;99.90;;;;;;6133295;23;20433;-78
2024/02/09 10:19:39;;;;;;;0.50;0.50;;;5.80;99.90;;;;;;6154378;23;20210;-79
2024/02/09 10:22:11;;;;;;;0.60;0.60;;;5.90;99.90;;;;;;6156528;23;20020;-79
2024/02/09 10:24:40;;;;;;;0.50;0.50;;;5.90;99.90;;;;;;6130849;23;20032;-79
2024/02/09 10:27:10;;;;;;;0.50;0.50;;;5.90;99.90;;;;;;6107890;23;20120;-79
2024/02/09 10:29:41;;;;;;;0.43;0.43;;;6.00;99.90;;;;;;6157248;23;20013;-79
2024/02/09 10:32:07;;;;;;;0.50;0.50;;;7.90;99.90;;;;;;6106597;23;20099;-77
2024/02/09 10:34:36;;;;;;;0.40;0.40;;;6.20;99.90;;;;;;6178646;23;20020;-79
2024/02/09 10:37:04;;;;;;;0.57;0.57;;;6.30;99.90;;;;;;6181605;23;20021;-79
2024/02/09 10:39:31;;;;;;;0.50;0.50;;;6.30;99.90;;;;;;6155960;23;20028;-79
2024/02/09 10:42:02;;;;;;;0.50;0.50;;;6.40;99.90;;;;;;6154800;23;20020;-80
2024/02/09 10:44:32;;;;;;;0.45;0.45;;;6.50;99.90;;;;;;6161511;23;20013;-84
2024/02/09 10:46:59;;;;;;;0.63;0.63;;;6.60;99.90;;;;;;6161795;23;20084;-85
2024/02/09 10:49:31;;;;;;;0.60;0.60;;;6.70;99.90;;;;;;6162246;23;20017;-83
2024/02/09 10:52:05;;;;;;;0.55;0.55;;;7.00;99.90;;;;;;6194444;23;20016;-85
2024/02/09 10:54:48;;;;;;;0.50;0.50;;;6.30;99.90;;;;;;6162864;23;20013;-84
2024/02/09 10:57:14;;;;;;;0.60;0.60;;;6.90;99.90;;;;;;6191269;23;20460;-86
2024/02/09 10:59:41;;;;;;;;;;;7.30;99.90;;;;;;6166918;23;20017;-86
2024/02/09 11:02:09;;;;;;;0.50;0.50;;;7.00;99.90;;;;;;6192723;23;19915;-84
2024/02/09 11:04:36;;;;;;;0.98;0.98;;;7.10;99.90;;;;;;6142463;23;20048;-85
2024/02/09 11:07:02;;;;;;;0.80;0.80;;;7.80;99.90;;;;;;6168115;23;20019;-85
2024/02/09 11:09:29;;;;;;;0.47;0.47;;;7.30;99.90;;;;;;6143920;23;20013;-85
2024/02/09 11:11:59;;;;;;;;;;;7.30;99.90;;;;;;6143693;23;20065;-85
2024/02/09 11:14:30;;;;;;;0.50;0.50;;;7.40;99.90;;;;;;6142994;23;19931;-84
2024/02/09 11:17:00;;;;;;;0.60;0.60;;;7.40;99.90;;;;;;6143581;23;20013;-86
2024/02/09 11:19:27;;;;;;;0.73;0.73;;;7.40;99.90;;;;;;6165788;23;20097;-82
2024/02/09 11:21:57;;;;;;;0.60;0.60;;;7.60;99.90;;;;;;6189120;23;20017;-82
2024/02/09 11:24:27;;;;;;;0.40;0.40;;;7.70;99.90;;;;;;6112622;23;20021;-81
2024/02/09 11:26:53;;;;;;;0.60;0.60;;;7.90;99.90;;;;;;6161794;23;20433;-82
2024/02/09 11:29:20;;;;;;;0.50;0.50;;;8.10;99.90;;;;;;6167184;23;20048;-81
2024/02/09 11:31:56;;;;;;;0.50;0.50;;;8.30;99.90;;;;;;6165672;23;20009;-82
2024/02/09 11:34:25;;;;;;;1.05;1.05;;;8.50;99.90;;;;;;6189685;23;20023;-83
2024/02/09 11:36:52;;;;;;;0.52;0.52;;;8.70;99.90;;;;;;6190887;23;20076;-80
2024/02/09 11:39:28;;;;;;;0.70;0.70;;;8.90;99.90;;;;;;6165955;23;20532;-82
2024/02/09 11:41:54;;;;;;;0.50;0.50;;;9.10;99.90;;;;;;6163863;23;20072;-82
2024/02/09 11:44:21;;;;;;;0.43;0.43;;;9.30;99.90;;;;;;6189720;23;20031;-81
2024/02/09 11:46:52;;;;;;;0.85;0.85;;;9.50;99.90;;;;;;6193568;23;20032;-83
2024/02/09 11:49:20;;;;;;;0.45;0.45;;;9.70;99.90;;;;;;6193240;23;20529;-83
2024/02/09 11:51:46;;;;;;;0.50;0.50;;;10.00;99.90;;;;;;6193295;23;20350;-81
2024/02/09 11:54:15;;;;;;;1.17;1.17;;;10.20;99.90;;;;;;6166426;23;20384;-82
2024/02/09 11:56:48;;;;;;;2.15;1.48;;;10.40;99.90;;;;;;6148820;23;20415;-83
2024/02/09 11:59:31;;;;;;;0.60;0.60;;;10.50;99.90;;;;;;6176366;23;20032;-81
2024/02/09 12:01:58;;;;;;;0.50;0.50;;;12.30;99.90;;;;;;6172382;23;20020;-83
2024/02/09 12:04:31;;;;;;;0.95;0.95;;;10.60;99.90;;;;;;6166548;23;20060;-84
2024/02/09 12:06:59;;;;;;;0.68;0.68;;;10.50;99.90;;;;;;6136337;23;20013;-83
2024/02/09 12:09:31;;;;;;;0.50;0.50;;;10.60;99.90;;;;;;6189115;23;20027;-83
2024/02/09 12:11:57;;;;;;;0.65;0.65;;;10.70;99.90;;;;;;6161561;23;20013;-82
2024/02/09 12:14:25;;;;;;;0.40;0.40;;;10.80;99.90;;;;;;6161066;23;20028;-82
2024/02/09 12:16:54;;;;;;;4.53;2.90;;;10.80;99.90;;;;;;6161162;23;20559;-82
2024/02/09 12:19:21;;;;;;;2.05;0.80;;;10.80;99.90;;;;;;6145612;23;20021;-84
2024/02/09 12:22:00;;;;;;;0.73;0.73;;;11.00;99.90;;;;;;6163505;23;20448;-82
2024/02/09 12:24:26;;;;;;;0.63;0.63;;;10.90;99.90;;;;;;6187085;23;20544;-81
2024/02/09 12:26:54;;;;;;;0.90;0.90;;;10.90;99.90;;;;;;6160197;23;20013;-81
2024/02/09 12:29:30;;;;;;;0.30;0.30;;;10.80;99.90;;;;;;6186781;23;20020;-81
2024/02/09 12:31:56;;;;;;;0.40;0.40;;;10.80;99.90;;;;;;6184918;23;20025;-83
2024/02/09 12:34:42;;;;;;;0.35;0.35;;;10.70;99.90;;;;;;6184030;23;20020;-81
2024/02/09 12:37:11;;;;;;;0.90;0.90;;;10.80;99.90;;;;;;6159521;23;20080;-83
2024/02/09 12:39:39;;;;;;;0.45;0.45;;;10.80;99.90;;;;;;6160966;23;20021;-80
2024/02/09 12:42:09;;;;;;;0.50;0.50;;;10.90;99.90;;;;;;6136043;23;20017;-83
2024/02/09 12:44:38;;;;;;;0.77;0.40;;;11.00;99.90;;;;;;6111399;23;20017;-82
2024/02/09 12:47:07;;;;;;;0.50;0.50;;;11.10;99.90;;;;;;6185558;23;20068;-82
2024/02/09 12:49:34;;;;;;;0.35;0.35;;;11.10;99.90;;;;;;6157959;23;20017;-82
2024/02/09 12:52:01;;;;;;;0.52;0.52;;;11.10;99.90;;;;;;6183652;23;20064;-81
2024/02/09 12:54:43;;;;;;;0.73;0.73;;;11.30;99.90;;;;;;6141665;23;20009;-82
2024/02/09 12:57:12;;;;;;;0.55;0.55;;;11.30;99.90;;;;;;6134552;23;20310;-82
2024/02/09 12:59:42;;;;;;;0.50;0.50;;;11.30;99.90;;;;;;6158229;23;20081;-82
2024/02/09 13:02:09;;;;;;;0.60;0.60;;;11.30;99.90;;;;;;6159770;23;20076;-81
2024/02/09 13:04:37;;;;;;;0.82;0.82;;;11.30;99.90;;;;;;6137387;23;20013;-81
2024/02/09 13:07:07;;;;;;;0.40;0.40;;;11.10;99.90;;;;;;6163949;23;20461;-81
2024/02/09 13:09:44;;;;;;;0.47;0.40;;;10.10;99.90;;;;;;6140593;23;20013;-83
2024/02/09 13:12:13;;;;;;;0.47;0.47;;;11.00;99.90;;;;;;6188222;23;20017;-81
2024/02/09 13:14:40;;;;;;;0.65;0.65;;;11.00;99.90;;;;;;6193100;23;20048;-81
2024/02/09 13:17:10;;;;;;;0.30;0.30;;;11.00;99.90;;;;;;6116677;23;20017;-84
2024/02/09 13:19:36;;;;;;;0.60;0.60;;;11.00;99.90;;;;;;6165218;23;20024;-81
2024/02/09 13:22:04;;;;;;;;;;;11.00;99.90;;;;;;6194651;23;20027;-81
2024/02/09 13:24:30;;;;;;;1.00;0.85;;;10.90;99.90;;;;;;6167710;23;20344;-82
2024/02/09 13:26:57;;;;;;;0.40;0.40;;;10.90;99.90;;;;;;6143817;23;20013;-81
2024/02/09 13:29:25;;;;;;;0.38;0.38;;;10.90;99.90;;;;;;6167865;23;20013;-81
2024/02/09 13:31:53;;;;;;;0.40;0.40;;;10.80;99.90;;;;;;6196789;23;20345;-82
2024/02/09 13:34:23;;;;;;;0.45;0.45;;;10.80;99.90;;;;;;6192011;23;20021;-82
2024/02/09 13:37:06;;;;;;;4.20;0.50;;;10.80;99.90;;;;;;6147274;23;20017;-82
2024/02/09 13:39:32;;;;;;;;;;;10.80;99.90;;;;;;6195671;23;20475;-82
2024/02/09 13:41:59;;;;;;;0.32;0.32;;;10.80;99.90;;;;;;6193084;23;19912;-81
2024/02/09 13:44:26;;;;;;;0.30;0.30;;;10.70;99.90;;;;;;6166002;23;20013;-82
2024/02/09 13:46:54;;;;;;;0.30;0.30;;;10.70;99.90;;;;;;6166753;23;20017;-83
2024/02/09 13:49:21;;;;;;;0.35;0.35;;;10.80;99.90;;;;;;6165727;23;20453;-82
2024/02/09 13:51:48;;;;;;;1.50;1.40;;;10.90;99.90;;;;;;6164790;23;20024;-82
2024/02/09 13:54:14;;;;;;;0.57;0.57;;;11.00;99.90;;;;;;6166471;23;20071;-82
2024/02/09 13:56:40;;;;;;;0.30;0.30;;;11.10;99.90;;;;;;6192400;23;20100;-81
2024/02/09 13:59:05;;;;;;;0.40;0.40;;;11.20;99.90;;;;;;6117302;23;20027;-81
2024/02/09 14:01:32;;;;;;;0.40;0.40;;;11.40;99.90;;;;;;6194541;23;20013;-81
2024/02/09 14:04:09;;;;;;;0.38;0.38;;;11.40;99.90;;;;;;6193258;23;20013;-84
2024/02/09 14:06:37;;;;;;;0.40;0.40;;;11.40;99.90;;;;;;6144358;23;20017;-83
2024/02/09 14:09:03;;;;;;;0.40;0.40;;;11.40;99.90;;;;;;6143377;23;20025;-82
2024/02/09 14:11:31;;;;;;;0.60;0.60;;;11.30;99.90;;;;;;6141698;23;20036;-84
2024/02/09 14:13:58;;;;;;;0.32;0.32;;;11.20;99.90;;;;;;6192277;23;20071;-81
2024/02/09 14:16:35;;;;;;;0.40;0.40;;;11.20;99.90;;;;;;6166777;23;20017;-82
2024/02/09 14:19:04;;;;;;;0.30;0.30;;;11.10;99.90;;;;;;6164168;23;20017;-81
2024/02/09 14:21:31;;;;;;;0.30;0.30;;;11.00;99.90;;;;;;6134849;23;20600;-81
2024/02/09 14:24:00;;;;;;;0.65;0.65;;;11.00;99.90;;;;;;6161361;23;20013;-82
2024/02/09 14:26:26;;;;;;;0.93;0.93;;;10.90;99.90;;;;;;6186687;23;20061;-82
2024/02/09 14:28:54;;;;;;;;;;;10.90;99.90;;;;;;6138412;23;20024;-81
2024/02/09 14:31:20;;;;;;;0.50;0.50;;;10.80;99.90;;;;;;6187087;23;19915;-81
2024/02/09 14:33:49;;;;;;;0.40;0.40;;;10.80;99.90;;;;;;6186018;23;20017;-79
2024/02/09 14:36:18;;;;;;;0.40;0.40;;;10.80;99.90;;;;;;6183649;23;20315;-81
2024/02/09 14:38:44;;;;;;;0.60;0.60;;;10.80;99.90;;;;;;6160146;23;20013;-81
2024/02/09 14:41:10;;;;;;;0.47;0.47;;;10.80;99.90;;;;;;6158558;23;20025;-81
2024/02/09 14:43:38;;;;;;;0.35;0.35;;;10.80;99.90;;;;;;6158977;23;20067;-81
2024/02/09 14:46:09;;;;;;;0.30;0.30;;;10.80;99.90;;;;;;6159519;23;20725;-82
2024/02/09 14:48:37;;;;;;;0.40;0.40;;;12.20;99.90;;;;;;6185822;23;20043;-80
2024/02/09 14:51:03;;;;;;;1.25;1.25;;;10.80;99.90;;;;;;6158898;23;20088;-81